Time;durP1;ratioP1;P1;durP2;ratioP2;P2;SDS_P1;SDS_P2;PMS_P1;PMS_P2;Temp;Humidity;BMP_temperature;BMP_pressure;BME280_temperature;BME280_humidity;BME280_pressure;Samples;Min_cycle;Max_cycle;Signal;HPM_P1;HPM_P2
2023/12/31 00:01:26;;;;;;;13.73;1.95;;;;;;;;;;5071518;28;20035;-45
2023/12/31 00:03:53;;;;;;;19.48;2.28;;;;;;;;;;5072724;28;20117;-45
2023/12/31 00:06:21;;;;;;;13.65;2.75;;;;;;;;;;5072738;28;20024;-46
2023/12/31 00:08:48;;;;;;;11.60;1.90;;;;;;;;;;5072487;28;20031;-46
2023/12/31 00:11:15;;;;;;;20.30;2.25;;;;;;;;;;5072617;28;20032;-45
2023/12/31 00:13:42;;;;;;;7.57;1.77;;;;;;;;;;5071655;28;20076;-46
2023/12/31 00:16:13;;;;;;;14.80;2.60;;;;;;;;;;5072488;28;20255;-48
2023/12/31 00:18:40;;;;;;;10.05;1.90;;;;;;;;;;5072136;28;20047;-45
2023/12/31 00:21:07;;;;;;;16.42;2.17;;;;;;;;;;5072254;28;20029;-46
2023/12/31 00:23:35;;;;;;;10.45;1.98;;;;;;;;;;5072359;28;20048;-45
2023/12/31 00:26:02;;;;;;;13.30;2.42;;;;;;;;;;5072299;28;20433;-46
2023/12/31 00:28:29;;;;;;;12.90;2.50;;;;;;;;;;5071171;28;20070;-44
2023/12/31 00:30:56;;;;;;;19.52;2.80;;;;;;;;;;5052223;28;20039;-45
2023/12/31 00:33:23;;;;;;;22.27;2.78;;;;;;;;;;5053296;28;20486;-45
2023/12/31 00:35:50;;;;;;;15.05;2.22;;;;;;;;;;5062388;28;20032;-45
2023/12/31 00:38:17;;;;;;;18.58;2.28;;;;;;;;;;5051356;28;20068;-45
2023/12/31 00:40:44;;;;;;;20.60;2.92;;;;;;;;;;5051728;28;20383;-44
2023/12/31 00:43:11;;;;;;;23.65;2.78;;;;;;;;;;5067845;28;20026;-44
2023/12/31 00:45:38;;;;;;;17.83;2.70;;;;;;;;;;5071805;28;20021;-46
2023/12/31 00:48:05;;;;;;;18.75;2.60;;;;;;;;;;5065329;28;20063;-44
2023/12/31 00:50:32;;;;;;;19.35;3.70;;;;;;;;;;5062962;28;20024;-46
2023/12/31 00:52:59;;;;;;;18.88;2.65;;;;;;;;;;5071436;28;20513;-48
2023/12/31 00:55:26;;;;;;;21.02;2.75;;;;;;;;;;5071076;28;20085;-47
2023/12/31 00:57:53;;;;;;;26.38;2.92;;;;;;;;;;5071514;28;20093;-46
2023/12/31 01:00:21;;;;;;;24.27;2.95;;;;;;;;;;5070799;28;20074;-44
2023/12/31 01:02:47;;;;;;;16.13;2.42;;;;;;;;;;5070798;28;20097;-45
2023/12/31 01:05:14;;;;;;;21.80;2.88;;;;;;;;;;5064574;28;20047;-45
2023/12/31 01:07:41;;;;;;;20.45;2.78;;;;;;;;;;5069143;28;20044;-45
2023/12/31 01:10:09;;;;;;;24.55;3.28;;;;;;;;;;5070189;28;20027;-42
2023/12/31 01:12:35;;;;;;;22.58;2.83;;;;;;;;;;5069691;28;20049;-43
2023/12/31 01:15:03;;;;;;;17.08;3.08;;;;;;;;;;5071466;28;20059;-43
2023/12/31 01:17:30;;;;;;;18.02;2.95;;;;;;;;;;5059088;28;20037;-44
2023/12/31 01:19:57;;;;;;;34.67;3.65;;;;;;;;;;5059678;28;20036;-44
2023/12/31 01:22:24;;;;;;;31.38;3.60;;;;;;;;;;5070587;28;20039;-43
2023/12/31 01:24:51;;;;;;;23.75;3.22;;;;;;;;;;5070017;28;20071;-43
2023/12/31 01:27:18;;;;;;;26.70;4.05;;;;;;;;;;5068666;28;20067;-44
2023/12/31 01:29:45;;;;;;;20.98;3.38;;;;;;;;;;5068794;28;20116;-44
2023/12/31 01:32:12;;;;;;;21.88;3.03;;;;;;;;;;5058758;28;20033;-46
2023/12/31 01:34:39;;;;;;;18.02;2.63;;;;;;;;;;5068493;28;20052;-44
2023/12/31 01:37:06;;;;;;;19.63;3.03;;;;;;;;;;5071185;28;20497;-45
2023/12/31 01:39:33;;;;;;;22.17;3.25;;;;;;;;;;5070102;28;20028;-44
2023/12/31 01:42:00;;;;;;;24.40;3.30;;;;;;;;;;5064900;28;20021;-43
2023/12/31 01:44:28;;;;;;;28.23;3.90;;;;;;;;;;5066694;28;20070;-44
2023/12/31 01:46:55;;;;;;;25.67;3.25;;;;;;;;;;5065014;28;20068;-43
2023/12/31 01:49:22;;;;;;;37.97;3.63;;;;;;;;;;5062293;28;20026;-48
2023/12/31 01:51:50;;;;;;;44.00;4.45;;;;;;;;;;5069317;28;20060;-47
2023/12/31 01:54:19;;;;;;;38.08;4.63;;;;;;;;;;5073869;28;20040;-45
2023/12/31 01:56:49;;;;;;;30.98;4.15;;;;;;;;;;5061279;28;20032;-43
2023/12/31 01:59:16;;;;;;;35.08;3.92;;;;;;;;;;5071998;28;20036;-45
2023/12/31 02:01:44;;;;;;;32.53;4.10;;;;;;;;;;5067640;28;20033;-45
2023/12/31 02:04:10;;;;;;;31.55;4.00;;;;;;;;;;5055274;28;20040;-49
2023/12/31 02:06:37;;;;;;;23.42;3.92;;;;;;;;;;5067955;28;20040;-44
2023/12/31 02:09:06;;;;;;;25.42;3.53;;;;;;;;;;5074821;28;20017;-46
2023/12/31 02:11:34;;;;;;;21.08;3.58;;;;;;;;;;5074494;28;20112;-43
2023/12/31 02:14:01;;;;;;;25.05;3.67;;;;;;;;;;5074712;28;20067;-42
2023/12/31 02:16:28;;;;;;;30.70;3.92;;;;;;;;;;5075282;28;20093;-45
2023/12/31 02:18:55;;;;;;;25.55;3.70;;;;;;;;;;5059839;28;20098;-46
2023/12/31 02:21:23;;;;;;;24.40;2.95;;;;;;;;;;5074407;28;20052;-46
2023/12/31 02:23:50;;;;;;;25.33;3.75;;;;;;;;;;5074368;28;20126;-45
2023/12/31 02:26:18;;;;;;;12.43;2.80;;;;;;;;;;5074348;28;20028;-45
2023/12/31 02:28:45;;;;;;;21.80;3.33;;;;;;;;;;5074156;28;20036;-46
2023/12/31 02:31:12;;;;;;;14.27;3.13;;;;;;;;;;5074291;28;20039;-45
2023/12/31 02:33:39;;;;;;;18.58;2.95;;;;;;;;;;5073936;28;20039;-48
2023/12/31 02:36:06;;;;;;;21.40;3.70;;;;;;;;;;5074208;28;20036;-46
2023/12/31 02:38:33;;;;;;;17.02;2.55;;;;;;;;;;5072106;28;20029;-46
2023/12/31 02:41:00;;;;;;;12.30;2.90;;;;;;;;;;5068011;28;20035;-46
2023/12/31 02:43:27;;;;;;;14.43;2.30;;;;;;;;;;5073950;28;20056;-45
2023/12/31 02:45:54;;;;;;;18.63;2.47;;;;;;;;;;5071536;28;20112;-45
2023/12/31 02:48:21;;;;;;;14.10;2.60;;;;;;;;;;5054702;28;20033;-47
2023/12/31 02:50:48;;;;;;;15.57;2.47;;;;;;;;;;5068299;28;20052;-46
2023/12/31 02:53:15;;;;;;;14.15;2.80;;;;;;;;;;5073851;28;20474;-45
2023/12/31 02:55:42;;;;;;;17.95;2.42;;;;;;;;;;5073655;28;20043;-45
2023/12/31 02:58:09;;;;;;;12.02;2.28;;;;;;;;;;5073793;28;20025;-45
2023/12/31 03:00:36;;;;;;;12.88;2.25;;;;;;;;;;5060303;28;20029;-45
2023/12/31 03:03:04;;;;;;;16.60;2.42;;;;;;;;;;5062754;28;20036;-51
2023/12/31 03:05:30;;;;;;;16.88;2.03;;;;;;;;;;5066654;28;20486;-52
2023/12/31 03:07:57;;;;;;;21.95;2.83;;;;;;;;;;5063491;28;20037;-50
2023/12/31 03:10:25;;;;;;;18.58;2.28;;;;;;;;;;5070141;28;20024;-48
2023/12/31 03:12:52;;;;;;;20.48;2.60;;;;;;;;;;5069362;28;20067;-49
2023/12/31 03:15:20;;;;;;;26.63;3.10;;;;;;;;;;5070354;28;20682;-47
2023/12/31 03:17:47;;;;;;;16.00;2.50;;;;;;;;;;5070118;28;20021;-47
2023/12/31 03:20:14;;;;;;;19.23;3.10;;;;;;;;;;5066296;28;20029;-47
2023/12/31 03:22:41;;;;;;;16.50;2.42;;;;;;;;;;5071903;28;20462;-48
2023/12/31 03:25:20;;;;;;;;;;;;;;;;;;;;;
2023/12/31 03:27:47;;;;;;;20.38;2.33;;;;;;;;;;5064289;28;20029;-45
2023/12/31 03:30:15;;;;;;;11.15;1.73;;;;;;;;;;5068296;28;20071;-45
2023/12/31 03:32:42;;;;;;;14.50;2.08;;;;;;;;;;5072091;28;20048;-48
2023/12/31 03:35:09;;;;;;;14.88;2.58;;;;;;;;;;5072601;28;20021;-46
2023/12/31 03:37:36;;;;;;;12.30;2.08;;;;;;;;;;5071561;28;20040;-44
2023/12/31 03:40:03;;;;;;;14.88;2.00;;;;;;;;;;5072327;28;20469;-43
2023/12/31 03:42:31;;;;;;;16.25;2.20;;;;;;;;;;5070535;28;20036;-44
2023/12/31 03:44:58;;;;;;;14.98;2.25;;;;;;;;;;5072366;28;20059;-43
2023/12/31 03:47:25;;;;;;;11.07;2.10;;;;;;;;;;5071933;28;20029;-43
2023/12/31 03:49:52;;;;;;;12.73;1.85;;;;;;;;;;5071616;28;20037;-43
2023/12/31 03:52:19;;;;;;;11.05;1.70;;;;;;;;;;5070650;28;20086;-45
2023/12/31 03:54:46;;;;;;;9.52;1.65;;;;;;;;;;5071976;28;20044;-45
2023/12/31 03:57:14;;;;;;;11.75;2.17;;;;;;;;;;5070835;28;20028;-48
2023/12/31 03:59:41;;;;;;;15.50;2.05;;;;;;;;;;5071394;28;20064;-45
2023/12/31 04:02:07;;;;;;;15.70;2.25;;;;;;;;;;5071862;28;20028;-43
2023/12/31 04:04:34;;;;;;;12.07;1.75;;;;;;;;;;5072046;28;20024;-43
2023/12/31 04:07:02;;;;;;;10.07;1.70;;;;;;;;;;5071347;28;20028;-43
2023/12/31 04:09:29;;;;;;;11.93;1.88;;;;;;;;;;5066155;28;20078;-45
2023/12/31 04:11:57;;;;;;;9.18;1.63;;;;;;;;;;5071730;28;20745;-47
2023/12/31 04:14:24;;;;;;;10.75;1.80;;;;;;;;;;5068691;28;20482;-45
2023/12/31 04:16:51;;;;;;;11.95;1.75;;;;;;;;;;5069043;28;20058;-47
2023/12/31 04:19:18;;;;;;;12.80;2.30;;;;;;;;;;5071574;28;20081;-45
2023/12/31 04:21:45;;;;;;;10.23;2.00;;;;;;;;;;5071509;28;20028;-46
2023/12/31 04:24:12;;;;;;;11.85;1.90;;;;;;;;;;5071936;28;20162;-46
2023/12/31 04:26:42;;;;;;;11.40;2.45;;;;;;;;;;5071687;28;20036;-45
2023/12/31 04:29:11;;;;;;;11.27;2.33;;;;;;;;;;5071567;28;20024;-44
2023/12/31 04:31:48;;;;;;;9.70;1.73;;;;;;;;;;5071636;28;20036;-46
2023/12/31 04:34:15;;;;;;;10.23;1.70;;;;;;;;;;5071102;28;20418;-45
2023/12/31 04:36:45;;;;;;;12.98;1.83;;;;;;;;;;5072100;28;20474;-45
2023/12/31 04:39:13;;;;;;;12.07;1.70;;;;;;;;;;5072084;28;20032;-46
2023/12/31 04:41:40;;;;;;;8.48;1.60;;;;;;;;;;5072067;28;20073;-47
2023/12/31 04:44:06;;;;;;;10.20;1.70;;;;;;;;;;5070678;28;20382;-44
2023/12/31 04:46:33;;;;;;;12.25;1.55;;;;;;;;;;5071939;28;20025;-44
2023/12/31 04:49:00;;;;;;;7.70;1.85;;;;;;;;;;5071850;28;20086;-48
2023/12/31 04:51:28;;;;;;;10.57;1.60;;;;;;;;;;5072043;28;20035;-45
2023/12/31 04:53:55;;;;;;;9.40;1.42;;;;;;;;;;5052603;28;20033;-47
2023/12/31 04:56:24;;;;;;;13.95;1.73;;;;;;;;;;5051893;28;20017;-43
2023/12/31 04:58:51;;;;;;;9.02;1.70;;;;;;;;;;5051757;28;20025;-44
2023/12/31 05:01:19;;;;;;;9.63;1.58;;;;;;;;;;5051920;28;20026;-49
2023/12/31 05:03:46;;;;;;;11.07;1.70;;;;;;;;;;5051869;28;20540;-46
2023/12/31 05:06:16;;;;;;;12.63;1.92;;;;;;;;;;5051760;28;20025;-46
2023/12/31 05:08:44;;;;;;;12.82;1.90;;;;;;;;;;5051675;28;20075;-44
2023/12/31 05:11:11;;;;;;;8.15;1.90;;;;;;;;;;5058527;28;20502;-46
2023/12/31 05:13:39;;;;;;;9.68;1.65;;;;;;;;;;5055001;28;20120;-46
2023/12/31 05:16:16;;;;;;;11.55;2.03;;;;;;;;;;5051586;28;20029;-46
2023/12/31 05:18:43;;;;;;;12.15;1.60;;;;;;;;;;5051572;28;20071;-45
2023/12/31 05:21:12;;;;;;;8.07;1.80;;;;;;;;;;5051618;28;20391;-45
2023/12/31 05:23:39;;;;;;;13.85;1.55;;;;;;;;;;5051429;28;20509;-46
2023/12/31 05:26:06;;;;;;;10.10;1.73;;;;;;;;;;5051391;28;20087;-45
2023/12/31 05:28:33;;;;;;;9.18;1.38;;;;;;;;;;5051483;28;20044;-46
2023/12/31 05:31:00;;;;;;;9.18;1.95;;;;;;;;;;5051574;28;20581;-46
2023/12/31 05:33:27;;;;;;;12.20;1.77;;;;;;;;;;5051439;28;20402;-45
2023/12/31 05:35:54;;;;;;;11.45;1.80;;;;;;;;;;5051449;28;20029;-46
2023/12/31 05:38:21;;;;;;;10.63;1.60;;;;;;;;;;5051417;28;20029;-47
2023/12/31 05:40:47;;;;;;;9.15;1.55;;;;;;;;;;5051461;28;20036;-45
2023/12/31 05:43:14;;;;;;;8.63;1.50;;;;;;;;;;5051389;28;20036;-46
2023/12/31 05:45:41;;;;;;;14.25;1.67;;;;;;;;;;5051336;28;20067;-46
2023/12/31 05:48:08;;;;;;;9.40;1.92;;;;;;;;;;5051209;28;20029;-47
2023/12/31 05:50:35;;;;;;;7.25;1.90;;;;;;;;;;5051391;28;20029;-47
2023/12/31 05:53:02;;;;;;;13.73;1.70;;;;;;;;;;5051302;28;20041;-47
2023/12/31 05:55:29;;;;;;;9.88;1.55;;;;;;;;;;5051247;28;20082;-46
2023/12/31 05:57:56;;;;;;;9.73;1.50;;;;;;;;;;5051256;28;20391;-46
2023/12/31 06:00:24;;;;;;;11.82;1.65;;;;;;;;;;5051193;28;20071;-45
2023/12/31 06:02:51;;;;;;;7.43;1.30;;;;;;;;;;5054301;28;20047;-46
2023/12/31 06:05:18;;;;;;;11.30;1.77;;;;;;;;;;5051179;28;20459;-45
2023/12/31 06:07:45;;;;;;;12.18;1.60;;;;;;;;;;5050287;28;20438;-45
2023/12/31 06:10:12;;;;;;;8.07;2.08;;;;;;;;;;5058041;28;20575;-46
2023/12/31 06:12:39;;;;;;;5.82;1.30;;;;;;;;;;5069566;28;20049;-45
2023/12/31 06:15:07;;;;;;;7.30;1.90;;;;;;;;;;5055085;28;20065;-47
2023/12/31 06:17:34;;;;;;;7.43;1.70;;;;;;;;;;5051099;28;20033;-46
2023/12/31 06:20:02;;;;;;;9.05;1.60;;;;;;;;;;5059007;28;20035;-45
2023/12/31 06:22:29;;;;;;;10.55;1.42;;;;;;;;;;5071042;28;20394;-45
2023/12/31 06:24:56;;;;;;;8.63;1.73;;;;;;;;;;5071043;28;20474;-46
2023/12/31 06:27:24;;;;;;;9.93;1.75;;;;;;;;;;5070979;28;20040;-46
2023/12/31 06:29:51;;;;;;;6.40;1.40;;;;;;;;;;5070961;28;20041;-45
2023/12/31 06:32:19;;;;;;;11.77;1.75;;;;;;;;;;5054179;28;20089;-45
2023/12/31 06:34:45;;;;;;;10.48;2.03;;;;;;;;;;5050932;28;20484;-46
2023/12/31 06:37:12;;;;;;;9.55;1.58;;;;;;;;;;5071844;28;20097;-47
2023/12/31 06:39:43;;;;;;;6.78;1.00;;;;;;;;;;5074308;28;20035;-46
2023/12/31 06:42:10;;;;;;;7.00;1.50;;;;;;;;;;5074400;28;20032;-45
2023/12/31 06:44:37;;;;;;;9.32;1.55;;;;;;;;;;5074451;28;20047;-45
2023/12/31 06:47:04;;;;;;;9.82;1.75;;;;;;;;;;5074392;28;20082;-46
2023/12/31 06:49:31;;;;;;;12.18;1.55;;;;;;;;;;5074267;28;20036;-45
2023/12/31 06:51:57;;;;;;;9.10;1.50;;;;;;;;;;5074094;28;20020;-45
2023/12/31 06:54:24;;;;;;;9.55;1.75;;;;;;;;;;5074077;28;20020;-46
2023/12/31 06:56:51;;;;;;;12.43;2.08;;;;;;;;;;5074453;28;20402;-45
2023/12/31 06:59:18;;;;;;;14.48;2.50;;;;;;;;;;5074092;28;20025;-46
2023/12/31 07:01:45;;;;;;;15.38;2.50;;;;;;;;;;5074052;28;20033;-45
2023/12/31 07:04:12;;;;;;;21.33;3.33;;;;;;;;;;5074045;28;20029;-45
2023/12/31 07:06:39;;;;;;;14.98;3.05;;;;;;;;;;5074059;28;20120;-46
2023/12/31 07:09:06;;;;;;;16.50;3.15;;;;;;;;;;5073960;28;20025;-45
2023/12/31 07:11:33;;;;;;;14.27;3.13;;;;;;;;;;5073714;28;20521;-47
2023/12/31 07:14:00;;;;;;;14.38;2.22;;;;;;;;;;5073868;28;20107;-45
2023/12/31 07:16:27;;;;;;;12.75;2.40;;;;;;;;;;5073739;28;20037;-47
2023/12/31 07:18:55;;;;;;;12.52;2.35;;;;;;;;;;5073642;28;20108;-45
2023/12/31 07:21:23;;;;;;;9.70;2.17;;;;;;;;;;5073687;28;20028;-46
2023/12/31 07:23:50;;;;;;;9.55;2.10;;;;;;;;;;5073689;28;20050;-46
2023/12/31 07:26:26;;;;;;;6.78;1.95;;;;;;;;;;5073548;28;20032;-46
2023/12/31 07:28:53;;;;;;;10.93;1.75;;;;;;;;;;5073462;28;20063;-46
2023/12/31 07:31:23;;;;;;;9.90;1.90;;;;;;;;;;5073541;28;20021;-45
2023/12/31 07:33:53;;;;;;;9.82;2.13;;;;;;;;;;5073357;28;20035;-45
2023/12/31 07:36:20;;;;;;;8.07;1.83;;;;;;;;;;5073433;28;20037;-46
2023/12/31 07:38:47;;;;;;;9.48;1.90;;;;;;;;;;5073265;28;20490;-46
2023/12/31 07:41:15;;;;;;;10.80;2.38;;;;;;;;;;5073237;28;20028;-45
2023/12/31 07:43:41;;;;;;;9.98;2.42;;;;;;;;;;5073285;28;20032;-46
2023/12/31 07:46:09;;;;;;;9.52;1.92;;;;;;;;;;5073286;28;20093;-45
2023/12/31 07:48:37;;;;;;;8.07;2.10;;;;;;;;;;5073016;28;20048;-45
2023/12/31 07:51:08;;;;;;;10.82;1.83;;;;;;;;;;5073193;28;20029;-46
2023/12/31 07:53:35;;;;;;;11.82;2.33;;;;;;;;;;5072926;28;20041;-45
2023/12/31 07:56:02;;;;;;;6.10;1.48;;;;;;;;;;5073276;28;20443;-46
2023/12/31 07:58:29;;;;;;;10.27;1.88;;;;;;;;;;5072904;28;20028;-45
2023/12/31 08:00:58;;;;;;;7.40;1.70;;;;;;;;;;5072975;28;20535;-45
2023/12/31 08:03:27;;;;;;;8.50;2.03;;;;;;;;;;5072871;28;20073;-46
2023/12/31 08:05:54;;;;;;;9.63;1.60;;;;;;;;;;5072658;28;20165;-46
2023/12/31 08:08:21;;;;;;;8.05;1.92;;;;;;;;;;5072677;28;20020;-45
2023/12/31 08:10:48;;;;;;;15.05;2.08;;;;;;;;;;5072717;28;20021;-46
2023/12/31 08:13:15;;;;;;;6.32;1.70;;;;;;;;;;5072280;28;20597;-46
2023/12/31 08:15:41;;;;;;;12.30;1.73;;;;;;;;;;5072657;28;20031;-46
2023/12/31 08:18:08;;;;;;;10.82;1.80;;;;;;;;;;5072552;28;20036;-46
2023/12/31 08:20:35;;;;;;;6.72;1.65;;;;;;;;;;5072553;28;20063;-46
2023/12/31 08:23:03;;;;;;;4.68;1.45;;;;;;;;;;5072466;28;20039;-45
2023/12/31 08:25:30;;;;;;;6.28;1.88;;;;;;;;;;5072474;28;20067;-45
2023/12/31 08:27:57;;;;;;;10.18;1.70;;;;;;;;;;5072364;28;20047;-45
2023/12/31 08:30:25;;;;;;;9.73;2.10;;;;;;;;;;5072321;28;20025;-45
2023/12/31 08:32:52;;;;;;;7.03;1.77;;;;;;;;;;5072128;28;20059;-45
2023/12/31 08:35:19;;;;;;;7.35;1.55;;;;;;;;;;5072325;28;20501;-45
2023/12/31 08:37:47;;;;;;;8.55;1.92;;;;;;;;;;5072233;28;20060;-46
2023/12/31 08:40:14;;;;;;;5.50;1.58;;;;;;;;;;5072262;28;20044;-46
2023/12/31 08:42:41;;;;;;;6.22;1.50;;;;;;;;;;5072072;28;20071;-46
2023/12/31 08:45:10;;;;;;;8.13;1.40;;;;;;;;;;5072135;28;20078;-45
2023/12/31 08:47:38;;;;;;;10.55;1.58;;;;;;;;;;5072012;28;20037;-45
2023/12/31 08:50:09;;;;;;;5.60;1.48;;;;;;;;;;5072092;28;20036;-46
2023/12/31 08:52:37;;;;;;;7.80;1.40;;;;;;;;;;5072076;28;20037;-46
2023/12/31 08:55:05;;;;;;;7.13;1.15;;;;;;;;;;5071886;28;20098;-45
2023/12/31 08:57:32;;;;;;;6.55;1.40;;;;;;;;;;5071944;28;20075;-45
2023/12/31 08:59:59;;;;;;;7.40;1.52;;;;;;;;;;5071453;28;20029;-46
2023/12/31 09:02:26;;;;;;;5.13;1.52;;;;;;;;;;5071905;28;20501;-46
2023/12/31 09:04:53;;;;;;;4.40;1.50;;;;;;;;;;5071944;28;20031;-45
2023/12/31 09:07:20;;;;;;;10.90;1.55;;;;;;;;;;5071905;28;20094;-46
2023/12/31 09:09:47;;;;;;;6.22;1.45;;;;;;;;;;5071707;28;20027;-46
2023/12/31 09:12:14;;;;;;;5.45;1.40;;;;;;;;;;5071499;28;20056;-46
2023/12/31 09:14:41;;;;;;;7.55;1.75;;;;;;;;;;5071683;28;20078;-46
2023/12/31 09:17:07;;;;;;;5.80;1.50;;;;;;;;;;5071805;28;20070;-46
2023/12/31 09:19:34;;;;;;;9.10;1.70;;;;;;;;;;5071559;28;20033;-46
2023/12/31 09:22:02;;;;;;;7.53;1.80;;;;;;;;;;5071629;28;20025;-46
2023/12/31 09:24:30;;;;;;;6.00;1.60;;;;;;;;;;5071949;28;20048;-45
2023/12/31 09:26:57;;;;;;;7.97;1.83;;;;;;;;;;5071668;28;20031;-48
2023/12/31 09:29:24;;;;;;;5.22;1.40;;;;;;;;;;5071551;28;20028;-47
2023/12/31 09:31:51;;;;;;;4.78;1.50;;;;;;;;;;5071599;28;20020;-46
2023/12/31 09:34:18;;;;;;;6.88;1.45;;;;;;;;;;5071481;28;20028;-46
2023/12/31 09:36:45;;;;;;;7.55;1.77;;;;;;;;;;5071523;28;20043;-45
2023/12/31 09:39:13;;;;;;;6.85;1.40;;;;;;;;;;5071430;28;20059;-45
2023/12/31 09:41:40;;;;;;;6.50;1.60;;;;;;;;;;5071575;28;20024;-46
2023/12/31 09:44:08;;;;;;;5.07;1.35;;;;;;;;;;5071482;28;20393;-48
2023/12/31 09:46:38;;;;;;;10.48;1.75;;;;;;;;;;5071320;28;20041;-45
2023/12/31 09:49:06;;;;;;;3.70;1.30;;;;;;;;;;5071325;28;20100;-46
2023/12/31 09:51:33;;;;;;;5.03;1.48;;;;;;;;;;5071372;28;20417;-46
2023/12/31 09:54:01;;;;;;;4.82;1.48;;;;;;;;;;5071366;28;20379;-47
2023/12/31 09:56:30;;;;;;;4.00;1.30;;;;;;;;;;5071357;28;20151;-46
2023/12/31 09:58:58;;;;;;;6.38;1.60;;;;;;;;;;5071219;28;20036;-45
2023/12/31 10:01:26;;;;;;;6.47;1.60;;;;;;;;;;5071320;28;20024;-46
2023/12/31 10:03:52;;;;;;;6.07;1.40;;;;;;;;;;5071310;28;20107;-48
2023/12/31 10:06:20;;;;;;;5.68;1.45;;;;;;;;;;5071172;28;20033;-45
2023/12/31 10:08:47;;;;;;;4.10;1.23;;;;;;;;;;5071184;28;20112;-46
2023/12/31 10:11:14;;;;;;;5.68;1.27;;;;;;;;;;5071154;28;20074;-48
2023/12/31 10:13:41;;;;;;;6.15;1.35;;;;;;;;;;5074763;28;20448;-46
2023/12/31 10:16:12;;;;;;;5.05;1.50;;;;;;;;;;5074903;28;20028;-46
2023/12/31 10:18:39;;;;;;;8.65;1.35;;;;;;;;;;5074761;28;20051;-46
2023/12/31 10:21:08;;;;;;;4.90;1.52;;;;;;;;;;5074821;28;20104;-46
2023/12/31 10:23:35;;;;;;;5.95;1.55;;;;;;;;;;5075091;28;20036;-46
2023/12/31 10:26:02;;;;;;;7.38;1.80;;;;;;;;;;5074789;28;20029;-46
2023/12/31 10:28:29;;;;;;;5.60;1.50;;;;;;;;;;5074627;28;20051;-46
2023/12/31 10:30:56;;;;;;;6.10;1.75;;;;;;;;;;5074733;28;20486;-45
2023/12/31 10:33:34;;;;;;;5.63;1.40;;;;;;;;;;5074577;28;20071;-45
2023/12/31 10:36:05;;;;;;;6.57;1.73;;;;;;;;;;5074498;28;20040;-47
2023/12/31 10:38:48;;;;;;;8.73;1.85;;;;;;;;;;5074511;28;20529;-46
2023/12/31 10:41:25;;;;;;;4.53;1.45;;;;;;;;;;5074785;28;20039;-45
2023/12/31 10:43:53;;;;;;;8.77;1.63;;;;;;;;;;5074480;28;20036;-45
2023/12/31 10:46:20;;;;;;;5.38;1.45;;;;;;;;;;5074386;28;20035;-46
2023/12/31 10:49:06;;;;;;;6.10;1.73;;;;;;;;;;5074426;28;20024;-46
2023/12/31 10:51:35;;;;;;;6.85;1.50;;;;;;;;;;5074209;28;20033;-46
2023/12/31 10:54:10;;;;;;;8.02;1.90;;;;;;;;;;5074174;28;20033;-45
2023/12/31 10:56:37;;;;;;;5.63;1.70;;;;;;;;;;5074145;28;20051;-45
2023/12/31 10:59:05;;;;;;;6.32;1.58;;;;;;;;;;5074120;28;20084;-45
2023/12/31 11:01:32;;;;;;;6.10;1.55;;;;;;;;;;5074120;28;20497;-46
2023/12/31 11:03:59;;;;;;;4.70;1.50;;;;;;;;;;5074069;28;20039;-46
2023/12/31 11:06:27;;;;;;;5.45;1.55;;;;;;;;;;5074071;28;20021;-46
2023/12/31 11:08:54;;;;;;;5.88;1.40;;;;;;;;;;5073906;28;20070;-46
2023/12/31 11:11:23;;;;;;;4.50;1.40;;;;;;;;;;5073929;28;20040;-46
2023/12/31 11:13:56;;;;;;;5.53;1.45;;;;;;;;;;5073871;28;20113;-46
2023/12/31 11:16:28;;;;;;;5.20;1.60;;;;;;;;;;5073909;28;20020;-45
2023/12/31 11:19:01;;;;;;;5.90;1.48;;;;;;;;;;5073749;28;20486;-45
2023/12/31 11:21:46;;;;;;;4.13;1.35;;;;;;;;;;5073778;28;20020;-45
2023/12/31 11:24:19;;;;;;;5.05;1.20;;;;;;;;;;5073286;28;20107;-45
2023/12/31 11:27:03;;;;;;;6.03;1.40;;;;;;;;;;5073618;28;20024;-45
2023/12/31 11:29:30;;;;;;;5.97;1.63;;;;;;;;;;5073495;28;20032;-47
2023/12/31 11:31:57;;;;;;;4.90;1.30;;;;;;;;;;5073545;28;20075;-46
2023/12/31 11:34:25;;;;;;;8.13;1.80;;;;;;;;;;5073433;28;20033;-45
2023/12/31 11:36:54;;;;;;;6.70;1.50;;;;;;;;;;5073517;28;20498;-45
2023/12/31 11:39:23;;;;;;;6.75;1.50;;;;;;;;;;5073348;28;20119;-46
2023/12/31 11:41:53;;;;;;;6.55;1.50;;;;;;;;;;5073249;28;20391;-47
2023/12/31 11:44:38;;;;;;;6.15;1.70;;;;;;;;;;5073354;28;20033;-45
2023/12/31 11:47:15;;;;;;;5.72;1.55;;;;;;;;;;5073069;28;20098;-46
2023/12/31 11:49:46;;;;;;;5.50;1.40;;;;;;;;;;5072933;28;20090;-45
2023/12/31 11:52:13;;;;;;;4.82;1.48;;;;;;;;;;5073038;28;20083;-47
2023/12/31 11:54:41;;;;;;;5.78;1.60;;;;;;;;;;5073041;28;20115;-45
2023/12/31 11:57:13;;;;;;;5.32;1.55;;;;;;;;;;5072969;28;20032;-45
2023/12/31 11:59:42;;;;;;;4.90;1.45;;;;;;;;;;5072790;28;20094;-47
2023/12/31 12:02:09;;;;;;;5.47;1.33;;;;;;;;;;5072875;28;20440;-46
2023/12/31 12:04:36;;;;;;;6.07;1.48;;;;;;;;;;5072766;28;20460;-46
2023/12/31 12:07:04;;;;;;;5.65;1.63;;;;;;;;;;5072773;28;20069;-46
2023/12/31 12:09:32;;;;;;;5.80;1.52;;;;;;;;;;5072669;28;20121;-45
2023/12/31 12:12:02;;;;;;;6.38;1.40;;;;;;;;;;5072534;28;20490;-46
2023/12/31 12:14:29;;;;;;;4.75;1.27;;;;;;;;;;5072618;28;20037;-45
2023/12/31 12:16:57;;;;;;;7.30;1.30;;;;;;;;;;5072573;28;20124;-47
2023/12/31 12:19:25;;;;;;;4.63;1.30;;;;;;;;;;5072443;28;20016;-47
2023/12/31 12:21:52;;;;;;;4.53;1.20;;;;;;;;;;5072501;28;20664;-46
2023/12/31 12:24:19;;;;;;;6.25;1.35;;;;;;;;;;5072535;28;20450;-46
2023/12/31 12:26:50;;;;;;;5.47;1.65;;;;;;;;;;5072468;28;20044;-48
2023/12/31 12:29:17;;;;;;;6.30;1.38;;;;;;;;;;5072224;28;20421;-46
2023/12/31 12:31:50;;;;;;;5.53;1.40;;;;;;;;;;5071324;28;20028;-47
2023/12/31 12:34:18;;;;;;;4.97;1.63;;;;;;;;;;5068443;28;20041;-50
2023/12/31 12:36:45;;;;;;;4.03;1.42;;;;;;;;;;5062025;28;20556;-45
2023/12/31 12:39:23;;;;;;;5.57;1.45;;;;;;;;;;5061041;28;20032;-46
2023/12/31 12:41:50;;;;;;;8.38;1.58;;;;;;;;;;5061921;28;20047;-46
2023/12/31 12:44:18;;;;;;;8.23;1.30;;;;;;;;;;5068548;28;20036;-45
2023/12/31 12:46:46;;;;;;;9.98;1.38;;;;;;;;;;5068667;28;20028;-45
2023/12/31 12:49:13;;;;;;;6.43;1.52;;;;;;;;;;5071371;28;20028;-46
2023/12/31 12:51:41;;;;;;;12.05;1.40;;;;;;;;;;5069947;28;20036;-45
2023/12/31 12:54:08;;;;;;;6.22;1.27;;;;;;;;;;5061839;28;20035;-46
2023/12/31 12:56:36;;;;;;;8.48;1.45;;;;;;;;;;5061902;28;20017;-45
2023/12/31 12:59:03;;;;;;;8.38;1.58;;;;;;;;;;5061772;28;20037;-47
2023/12/31 13:01:31;;;;;;;9.13;1.52;;;;;;;;;;5060181;28;20037;-45
2023/12/31 13:03:58;;;;;;;7.85;1.40;;;;;;;;;;5061242;28;20035;-45
2023/12/31 13:06:25;;;;;;;5.65;1.38;;;;;;;;;;5062098;28;20485;-47
2023/12/31 13:08:52;;;;;;;9.55;1.75;;;;;;;;;;5054188;28;20024;-46
2023/12/31 13:11:19;;;;;;;9.20;1.80;;;;;;;;;;5062148;28;20106;-48
2023/12/31 13:13:47;;;;;;;11.13;1.52;;;;;;;;;;5071212;28;20124;-46
2023/12/31 13:16:14;;;;;;;10.27;2.00;;;;;;;;;;5070969;28;20040;-47
2023/12/31 13:18:41;;;;;;;13.05;1.88;;;;;;;;;;5070324;28;20029;-46
2023/12/31 13:21:08;;;;;;;9.90;1.83;;;;;;;;;;5071580;28;20024;-47
2023/12/31 13:23:35;;;;;;;7.85;1.65;;;;;;;;;;5071688;28;20040;-47
2023/12/31 13:26:02;;;;;;;9.52;1.63;;;;;;;;;;5066283;28;20425;-44
2023/12/31 13:28:28;;;;;;;8.00;2.00;;;;;;;;;;5071577;28;20025;-46
2023/12/31 13:30:57;;;;;;;7.75;1.90;;;;;;;;;;5071573;28;20035;-44
2023/12/31 13:33:25;;;;;;;10.25;1.80;;;;;;;;;;5070260;28;20049;-45
2023/12/31 13:35:52;;;;;;;9.32;1.65;;;;;;;;;;5069863;28;20028;-44
2023/12/31 13:38:22;;;;;;;11.35;1.77;;;;;;;;;;5071444;28;20115;-45
2023/12/31 13:40:51;;;;;;;12.63;2.10;;;;;;;;;;5070806;28;20505;-48
2023/12/31 13:43:18;;;;;;;12.77;2.22;;;;;;;;;;5071580;28;20052;-44
2023/12/31 13:45:45;;;;;;;11.88;1.88;;;;;;;;;;5072135;28;20036;-42
2023/12/31 13:48:13;;;;;;;16.65;2.35;;;;;;;;;;5063960;28;20487;-34
2023/12/31 13:50:41;;;;;;;31.33;3.13;;;;;;;;;;5070746;28;20230;-41
2023/12/31 13:53:09;;;;;;;31.88;3.40;;;;;;;;;;5067366;28;20410;-42
2023/12/31 13:55:36;;;;;;;31.70;3.87;;;;;;;;;;5067277;28;20443;-35
2023/12/31 13:58:03;;;;;;;27.17;3.78;;;;;;;;;;5073894;28;21067;-36
2023/12/31 14:00:30;;;;;;;22.08;3.33;;;;;;;;;;5073981;28;20383;-37
2023/12/31 14:02:57;;;;;;;23.27;2.87;;;;;;;;;;5074146;28;20727;-35
2023/12/31 14:05:24;;;;;;;17.35;2.67;;;;;;;;;;5075233;28;20267;-38
2023/12/31 14:07:51;;;;;;;22.17;2.60;;;;;;;;;;5075055;28;20103;-36
2023/12/31 14:10:18;;;;;;;17.60;2.60;;;;;;;;;;5075185;28;20045;-38
2023/12/31 14:12:45;;;;;;;16.17;2.38;;;;;;;;;;5074939;28;20075;-39
2023/12/31 14:15:12;;;;;;;13.80;2.88;;;;;;;;;;5074950;28;20036;-37
2023/12/31 14:17:39;;;;;;;21.48;2.35;;;;;;;;;;5075035;28;20728;-38
2023/12/31 14:20:06;;;;;;;16.05;2.97;;;;;;;;;;5074971;28;20099;-39
2023/12/31 14:22:33;;;;;;;15.40;2.80;;;;;;;;;;5074918;28;20033;-39
2023/12/31 14:25:00;;;;;;;19.67;2.92;;;;;;;;;;5074837;28;20033;-38
2023/12/31 14:27:27;;;;;;;14.93;2.90;;;;;;;;;;5074786;28;20039;-36
2023/12/31 14:29:54;;;;;;;11.25;2.20;;;;;;;;;;5074768;28;20103;-35
2023/12/31 14:32:21;;;;;;;11.88;2.28;;;;;;;;;;5074787;28;20064;-37
2023/12/31 14:34:48;;;;;;;12.07;2.13;;;;;;;;;;5074641;28;20029;-37
2023/12/31 14:37:15;;;;;;;13.00;2.00;;;;;;;;;;5074494;28;20040;-40
2023/12/31 14:39:42;;;;;;;8.60;2.03;;;;;;;;;;5074617;28;20031;-37
2023/12/31 14:42:09;;;;;;;7.45;1.90;;;;;;;;;;5074589;28;20037;-35